Time;durP1;ratioP1;P1;durP2;ratioP2;P2;SDS_P1;SDS_P2;PMS_P1;PMS_P2;Temp;Humidity;BMP_temperature;BMP_pressure;BME280_temperature;BME280_humidity;BME280_pressure;Samples;Min_cycle;Max_cycle;Signal;HPM_P1;HPM_P2
2022/07/11 00:01:30;;;;;;;4.57;3.00;;;;;;;17.83;92.67;101065.66;20814784;28;20045;-70
2022/07/11 00:11:32;;;;;;;5.65;3.20;;;;;;;17.91;92.38;101058.28;20827375;28;20076;-71
2022/07/11 00:21:35;;;;;;;6.32;3.20;;;;;;;17.90;92.26;101043.31;20822129;28;20044;-69
2022/07/11 00:31:37;;;;;;;6.43;2.63;;;;;;;17.81;93.35;101038.31;20820899;28;21018;-69
2022/07/11 00:41:39;;;;;;;5.68;3.20;;;;;;;17.73;93.89;101029.78;20823066;28;20042;-70
2022/07/11 00:51:41;;;;;;;6.60;3.00;;;;;;;17.76;97.42;101030.53;20819995;28;20552;-69
2022/07/11 01:01:44;;;;;;;5.28;2.90;;;;;;;17.61;98.96;101031.06;20818791;28;20490;-69
2022/07/11 01:11:46;;;;;;;5.90;3.30;;;;;;;17.69;98.21;101021.94;20817663;28;20548;-69
2022/07/11 01:21:51;;;;;;;4.93;2.90;;;;;;;17.67;98.11;101021.09;20817578;28;20038;-69
2022/07/11 01:31:53;;;;;;;5.78;3.17;;;;;;;17.57;100.00;101011.75;20894350;28;20068;-69
2022/07/11 01:41:58;;;;;;;5.05;2.85;;;;;;;17.55;100.00;101016.25;20898233;28;20098;-69
2022/07/11 01:51:59;;;;;;;8.15;3.42;;;;;;;17.24;100.00;101007.63;20897399;28;20049;-69
2022/07/11 02:02:01;;;;;;;5.18;3.40;;;;;;;17.20;100.00;101014.81;20896773;28;20060;-70
2022/07/11 02:12:04;;;;;;;5.55;3.53;;;;;;;16.98;100.00;101011.13;20895727;28;20498;-69
2022/07/11 02:22:06;;;;;;;7.30;3.88;;;;;;;16.90;100.00;101009.59;20894087;28;20069;-69
2022/07/11 02:32:07;;;;;;;4.78;3.25;;;;;;;16.67;100.00;101007.66;20893376;28;21521;-70
2022/07/11 02:42:09;;;;;;;7.38;4.10;;;;;;;16.38;100.00;101016.47;20894206;28;20134;-68
2022/07/11 02:52:11;;;;;;;5.50;3.75;;;;;;;16.30;100.00;101009.69;20892095;28;20048;-70
2022/07/11 03:02:12;;;;;;;5.72;3.88;;;;;;;16.16;100.00;101016.22;20891824;28;20037;-69
2022/07/11 03:12:14;;;;;;;6.47;4.38;;;;;;;15.91;100.00;101009.91;20891509;28;20139;-68
2022/07/11 03:22:16;;;;;;;6.88;4.03;;;;;;;15.81;100.00;101013.69;20890291;28;20051;-70
2022/07/11 03:32:20;;;;;;;7.90;4.55;;;;;;;15.76;100.00;101011.22;20890144;28;20049;-71
2022/07/11 03:42:28;;;;;;;7.22;4.57;;;;;;;15.79;100.00;101015.53;20889772;28;20045;-69
2022/07/11 03:52:30;;;;;;;6.65;4.20;;;;;;;15.80;100.00;101011.97;20889391;28;20057;-69
2022/07/11 04:02:32;;;;;;;6.95;4.30;;;;;;;15.83;100.00;101011.91;20888684;28;20067;-69
2022/07/11 04:12:33;;;;;;;6.82;4.07;;;;;;;15.99;100.00;101002.63;20888974;28;20052;-68
2022/07/11 04:22:35;;;;;;;6.15;4.28;;;;;;;15.95;100.00;101000.13;20888989;28;20045;-68
2022/07/11 04:32:37;;;;;;;6.38;4.05;;;;;;;15.90;100.00;101002.88;20887850;28;20511;-69
2022/07/11 04:42:38;;;;;;;7.07;4.85;;;;;;;16.19;100.00;101009.13;20887387;28;20056;-69
2022/07/11 04:52:41;;;;;;;8.25;4.32;;;;;;;16.22;100.00;101003.75;20900953;28;20049;-69
2022/07/11 05:02:43;;;;;;;5.45;3.80;;;;;;;16.51;100.00;101006.38;20901658;28;20033;-67
2022/07/11 05:12:44;;;;;;;6.45;3.90;;;;;;;16.60;100.00;101011.38;20901499;28;20044;-68
2022/07/11 05:22:46;;;;;;;6.95;3.72;;;;;;;16.78;100.00;101014.41;20900619;28;20504;-69
2022/07/11 05:32:48;;;;;;;5.93;3.85;;;;;;;17.33;100.00;101009.94;20898541;28;20043;-70
2022/07/11 05:42:50;;;;;;;5.53;3.65;;;;;;;17.55;100.00;101023.34;20898938;28;20783;-67
2022/07/11 05:52:51;;;;;;;7.78;3.72;;;;;;;17.96;100.00;101016.56;20897607;28;20045;-68
2022/07/11 06:02:53;;;;;;;10.05;3.70;;;;;;;18.15;100.00;101022.94;20896794;28;20041;-66
2022/07/11 06:12:55;;;;;;;6.10;3.45;;;;;;;18.37;97.91;101024.78;20896501;28;20041;-67
2022/07/11 06:22:56;;;;;;;5.72;3.63;;;;;;;19.04;93.70;101027.47;20894745;28;20546;-67
2022/07/11 06:32:58;;;;;;;6.03;3.33;;;;;;;19.20;92.59;101017.94;20830311;28;20045;-67
2022/07/11 06:43:00;;;;;;;10.15;3.38;;;;;;;19.88;86.97;101025.69;20809677;28;20498;-67
2022/07/11 06:53:02;;;;;;;5.40;3.08;;;;;;;20.07;84.35;101025.72;20809893;28;20057;-67
2022/07/11 07:03:04;;;;;;;5.00;2.75;;;;;;;20.27;81.98;101006.25;20829512;28;20456;-67
2022/07/11 07:13:20;;;;;;;9.38;3.35;;;;;;;20.19;80.88;101009.25;20840143;28;20044;-67
2022/07/11 07:23:21;;;;;;;4.97;2.88;;;;;;;19.79;85.32;101011.03;20826488;28;20045;-67
2022/07/11 07:33:23;;;;;;;7.78;2.70;;;;;;;19.78;86.67;101011.94;20804506;28;20049;-73
2022/07/11 07:43:45;;;;;;;7.07;3.50;;;;;;;20.05;83.59;101009.00;20806156;28;20088;-75
2022/07/11 07:53:48;;;;;;;9.48;3.70;;;;;;;20.66;84.50;101004.38;20803282;28;20046;-71
2022/07/11 08:03:57;;;;;;;6.57;2.97;;;;;;;21.03;79.61;100997.25;20883502;28;20417;-72
2022/07/11 08:13:59;;;;;;;8.85;2.72;;;;;;;21.43;77.11;100988.16;20847202;28;20108;-72
2022/07/11 08:24:01;;;;;;;8.10;3.00;;;;;;;21.77;73.27;100989.91;20813030;28;20060;-72
2022/07/11 08:34:03;;;;;;;7.38;3.08;;;;;;;22.09;68.87;100982.00;20818040;28;20056;-72
2022/07/11 08:44:06;;;;;;;6.63;2.70;;;;;;;22.13;70.16;100983.56;20818065;28;20055;-69
2022/07/11 08:54:08;;;;;;;4.55;2.25;;;;;;;23.68;62.13;100962.19;20818563;28;20521;-69
2022/07/11 09:04:09;;;;;;;6.50;2.40;;;;;;;23.77;57.67;100974.97;20816387;28;20452;-69
2022/07/11 09:14:20;;;;;;;5.10;2.30;;;;;;;23.25;62.00;100972.75;20815692;28;20046;-69
2022/07/11 09:35:01;;;;;;;5.45;2.33;;;;;;;22.21;63.99;100981.34;20890790;28;20068;-69
2022/07/11 09:45:12;;;;;;;4.82;2.00;;;;;;;23.43;59.19;100960.09;20895581;28;20647;-70
2022/07/11 09:55:15;;;;;;;6.30;2.00;;;;;;;23.21;58.84;100957.84;20893536;28;20049;-69
2022/07/11 10:05:37;;;;;;;5.95;1.80;;;;;;;24.07;54.17;100952.63;20893304;28;20037;-69
2022/07/11 10:15:44;;;;;;;7.95;2.30;;;;;;;23.86;56.55;100951.28;20841217;28;20049;-69
2022/07/11 10:25:56;;;;;;;5.25;1.98;;;;;;;24.00;57.03;100953.94;20867802;28;20045;-70
2022/07/11 10:35:59;;;;;;;5.30;1.77;;;;;;;24.39;53.25;100944.38;20808134;28;20595;-70
2022/07/11 10:46:07;;;;;;;4.10;1.70;;;;;;;24.51;52.32;100946.25;20807110;28;20049;-70
2022/07/11 10:56:23;;;;;;;4.18;1.60;;;;;;;24.21;52.38;100952.59;20808010;28;20060;-70
2022/07/11 11:06:57;;;;;;;4.70;1.58;;;;;;;24.33;54.03;100959.81;20839386;28;20073;-70
2022/07/11 11:17:17;;;;;;;;;;;;;;;23.62;56.83;100941.13;20823539;28;20045;-68
2022/07/11 11:27:21;;;;;;;6.68;2.00;;;;;;;24.58;55.71;100923.50;20884087;28;19921;-71
2022/07/11 11:37:24;;;;;;;4.45;1.63;;;;;;;24.24;56.27;100924.75;20887487;28;20508;-71
2022/07/11 11:47:29;;;;;;;3.78;1.48;;;;;;;24.25;54.50;100932.72;20886775;28;20071;-70
2022/07/11 11:57:31;;;;;;;5.55;1.10;;;;;;;23.97;51.57;100933.63;20895055;28;20047;-70
2022/07/11 12:07:32;;;;;;;4.10;1.15;;;;;;;24.50;51.04;100921.31;20902336;28;20041;-71
2022/07/11 12:17:35;;;;;;;3.95;1.30;;;;;;;24.70;52.21;100913.78;20833823;28;20042;-71
2022/07/11 12:27:37;;;;;;;3.58;0.90;;;;;;;24.85;51.39;100902.03;20810200;28;20045;-71
2022/07/11 12:37:38;;;;;;;4.22;0.95;;;;;;;25.09;51.07;100912.94;20817305;28;20045;-70
2022/07/11 12:47:41;;;;;;;5.05;1.70;;;;;;;24.27;51.47;100912.06;20819451;28;20059;-71
2022/07/11 12:57:42;;;;;;;3.53;1.63;;;;;;;24.83;49.00;100886.06;20823686;28;20069;-70
2022/07/11 13:18:05;;;;;;;5.00;1.92;;;;;;;25.23;48.83;100891.41;20823992;28;20048;-69
2022/07/11 13:28:08;;;;;;;9.77;2.20;;;;;;;25.01;50.43;100883.97;20814713;28;20076;-69
2022/07/11 13:38:10;;;;;;;17.05;2.90;;;;;;;24.55;51.35;100881.69;20813972;28;20047;-69
2022/07/11 13:48:11;;;;;;;5.55;2.90;;;;;;;25.10;48.95;100887.84;20813166;28;20049;-69
2022/07/11 13:58:26;;;;;;;5.97;2.78;;;;;;;25.02;48.98;100892.84;20812438;28;20042;-69
2022/07/11 14:08:32;;;;;;;6.03;3.28;;;;;;;24.60;49.13;100877.84;20811647;28;20132;-69
2022/07/11 14:18:33;;;;;;;6.95;3.67;;;;;;;24.97;48.39;100885.13;20813082;28;20505;-69
2022/07/11 14:28:35;;;;;;;7.70;3.10;;;;;;;25.45;44.70;100872.00;20810110;28;20056;-69
2022/07/11 14:38:37;;;;;;;6.53;3.42;;;;;;;24.79;47.91;100863.13;20808791;28;20763;-70
2022/07/11 14:48:39;;;;;;;6.22;3.35;;;;;;;24.71;48.47;100864.59;20809063;28;20041;-70
2022/07/11 14:58:41;;;;;;;11.88;3.90;;;;;;;26.07;45.96;100857.75;20807075;28;20056;-70
2022/07/11 15:19:06;;;;;;;6.10;4.00;;;;;;;24.88;50.22;100872.34;20784829;28;20056;-70
2022/07/11 15:29:09;;;;;;;10.77;3.63;;;;;;;25.62;47.58;100870.78;20805245;28;20474;-69
2022/07/11 15:39:10;;;;;;;6.03;3.53;;;;;;;25.41;47.37;100864.28;20804527;28;20045;-69
2022/07/11 15:49:12;;;;;;;9.75;3.35;;;;;;;24.80;51.58;100872.00;20803880;28;20045;-70
2022/07/11 15:59:13;;;;;;;7.15;2.97;;;;;;;25.30;49.85;100852.50;20804826;28;20038;-70
2022/07/11 16:09:16;;;;;;;5.32;3.10;;;;;;;25.77;45.92;100845.59;20803203;28;20128;-70
2022/07/11 16:19:18;;;;;;;5.85;2.58;;;;;;;25.55;44.86;100856.13;20803700;28;20128;-70
2022/07/11 16:29:20;;;;;;;6.15;3.20;;;;;;;24.93;50.01;100858.66;20827034;28;20045;-69
2022/07/11 16:49:41;;;;;;;5.55;2.50;;;;;;;25.08;50.01;100868.34;20817516;28;20049;-69
2022/07/11 16:59:45;;;;;;;6.00;2.78;;;;;;;24.37;51.04;100872.19;20833187;28;20423;-69
2022/07/11 17:09:47;;;;;;;5.07;2.60;;;;;;;24.43;49.62;100868.25;20813940;28;20041;-69
2022/07/11 17:19:49;;;;;;;5.75;2.40;;;;;;;24.61;48.45;100852.78;20812194;28;20064;-69
2022/07/11 17:29:50;;;;;;;7.88;2.55;;;;;;;24.99;47.00;100850.19;20813688;28;20145;-68
2022/07/11 17:39:52;;;;;;;5.05;2.92;;;;;;;25.24;46.71;100850.22;20810938;28;20553;-69
2022/07/11 17:49:53;;;;;;;5.13;2.03;;;;;;;25.27;45.73;100841.13;20810961;28;20045;-69
2022/07/11 17:59:55;;;;;;;6.13;2.58;;;;;;;24.94;46.59;100857.69;20813350;28;20037;-69
2022/07/11 18:09:56;;;;;;;5.60;2.72;;;;;;;24.49;47.20;100849.13;20808378;28;20049;-69
2022/07/11 18:19:58;;;;;;;5.10;2.50;;;;;;;24.28;48.22;100856.72;20808665;28;20045;-69
2022/07/11 18:29:59;;;;;;;4.05;2.08;;;;;;;24.02;48.59;100861.94;20808863;28;20061;-69
2022/07/11 18:50:22;;;;;;;6.30;2.20;;;;;;;23.82;52.49;100881.09;20873903;28;20402;-70
2022/07/11 19:00:24;;;;;;;6.40;2.72;;;;;;;23.67;54.18;100882.06;20805776;28;20045;-70
2022/07/11 19:10:26;;;;;;;5.25;2.60;;;;;;;23.20;56.46;100881.34;20805320;28;20053;-71
2022/07/11 19:20:27;;;;;;;7.55;2.33;;;;;;;22.87;60.24;100869.97;20804594;28;20410;-70
2022/07/11 19:30:29;;;;;;;5.68;2.55;;;;;;;22.58;64.02;100890.38;20804213;28;20044;-69
2022/07/11 19:40:31;;;;;;;4.10;2.25;;;;;;;22.02;66.16;100893.44;20802227;28;20041;-69
2022/07/11 19:50:33;;;;;;;7.45;3.00;;;;;;;21.68;68.78;100899.78;20803263;28;20056;-70
2022/07/11 20:00:35;;;;;;;8.90;2.90;;;;;;;21.37;70.55;100926.34;20802381;28;20073;-68
2022/07/11 20:10:44;;;;;;;5.57;3.00;;;;;;;21.05;72.43;100934.16;20794272;28;20048;-68
2022/07/11 20:20:54;;;;;;;8.55;2.53;;;;;;;20.84;73.90;100940.53;20812466;28;20046;-72
2022/07/11 20:30:57;;;;;;;8.07;2.60;;;;;;;20.60;76.54;100942.59;20817878;28;20116;-72
2022/07/11 20:40:59;;;;;;;6.20;3.03;;;;;;;20.47;78.79;100951.19;20817235;28;20056;-71
2022/07/11 20:51:00;;;;;;;5.15;2.90;;;;;;;20.35;80.42;100957.03;20816088;28;20064;-71
2022/07/11 21:01:02;;;;;;;5.55;2.90;;;;;;;20.15;83.07;100970.41;20813716;28;20048;-71
2022/07/11 21:11:04;;;;;;;6.47;2.55;;;;;;;20.05;84.18;100975.31;20813214;28;20041;-72
2022/07/11 21:21:05;;;;;;;4.10;2.50;;;;;;;19.91;85.80;100977.72;20814411;28;20056;-71
2022/07/11 21:31:08;;;;;;;4.70;2.80;;;;;;;19.86;86.74;100983.25;20812133;28;20046;-71
2022/07/11 21:41:09;;;;;;;3.95;2.20;;;;;;;19.67;88.69;100991.16;20812759;28;20827;-71
2022/07/11 21:51:11;;;;;;;5.70;2.38;;;;;;;19.63;89.61;101000.19;20812075;28;20045;-70
2022/07/11 22:01:12;;;;;;;4.43;2.40;;;;;;;19.37;92.27;101017.25;20810793;28;20119;-71
2022/07/11 22:11:14;;;;;;;6.68;2.25;;;;;;;19.16;94.89;101018.13;20817259;28;20069;-71
2022/07/11 22:21:16;;;;;;;4.72;2.40;;;;;;;18.90;97.83;101025.38;20812691;28;20038;-71
2022/07/11 22:31:17;;;;;;;5.55;2.30;;;;;;;18.74;99.84;101024.28;20809956;28;20048;-72
2022/07/11 22:41:19;;;;;;;5.38;2.40;;;;;;;18.48;100.00;101027.88;20811387;28;20049;-72
2022/07/11 22:51:20;;;;;;;8.68;2.60;;;;;;;18.40;100.00;101025.53;20811174;28;20498;-71
2022/07/11 23:01:22;;;;;;;7.10;2.72;;;;;;;18.14;100.00;101023.84;20809466;28;20046;-72
2022/07/11 23:11:24;;;;;;;9.00;2.75;;;;;;;18.06;100.00;101019.75;20808511;28;20037;-71
2022/07/11 23:21:25;;;;;;;4.93;2.67;;;;;;;18.09;100.00;101036.41;20808948;28;20465;-71
2022/07/11 23:31:29;;;;;;;4.97;2.60;;;;;;;17.97;100.00;101028.06;20806567;28;20049;-71
2022/07/11 23:41:30;;;;;;;5.57;2.47;;;;;;;17.81;100.00;101031.25;20808221;28;20129;-71
2022/07/11 23:51:32;;;;;;;5.78;2.88;;;;;;;17.75;100.00;101039.41;20823655;28;20577;-71
